Time;durP1;ratioP1;P1;durP2;ratioP2;P2;SDS_P1;SDS_P2;PMS_P1;PMS_P2;Temp;Humidity;BMP_temperature;BMP_pressure;BME280_temperature;BME280_humidity;BME280_pressure;Samples;Min_cycle;Max_cycle;Signal;HPM_P1;HPM_P2
2022/02/20 00:02:34;;;;;;;2.87;1.47;;;5.60;99.90;;;;;;4845825;29;20421;-81
2022/02/20 00:05:18;;;;;;;3.83;1.30;;;5.40;99.90;;;;;;4846060;29;20407;-80
2022/02/20 00:08:04;;;;;;;3.10;2.17;;;5.10;99.90;;;;;;4857605;29;20496;-81
2022/02/20 00:10:48;;;;;;;4.63;1.30;;;4.90;99.90;;;;;;4845344;29;20457;-82
2022/02/20 00:13:33;;;;;;;6.60;1.73;;;5.10;99.90;;;;;;4845817;29;20395;-82
2022/02/20 00:16:17;;;;;;;3.23;1.50;;;5.10;99.90;;;;;;4845326;29;20456;-82
2022/02/20 00:19:02;;;;;;;1.50;1.40;;;4.80;99.90;;;;;;4844643;29;20453;-82
2022/02/20 00:21:47;;;;;;;2.17;1.07;;;4.60;99.90;;;;;;4846985;29;20757;-81
2022/02/20 00:24:32;;;;;;;2.33;1.40;;;4.40;99.90;;;;;;4849144;29;20400;-82
2022/02/20 00:27:16;;;;;;;2.03;1.53;;;4.70;99.90;;;;;;4849495;29;20978;-80
2022/02/20 00:30:02;;;;;;;3.23;1.37;;;4.50;99.90;;;;;;4849195;29;20555;-81
2022/02/20 00:32:46;;;;;;;1.27;1.10;;;4.60;99.90;;;;;;4848810;29;20480;-81
2022/02/20 00:35:33;;;;;;;1.83;1.57;;;4.30;99.90;;;;;;4848972;29;20717;-81
2022/02/20 00:38:17;;;;;;;3.93;1.43;;;4.50;99.90;;;;;;4849611;29;20453;-80
2022/02/20 00:41:02;;;;;;;1.93;1.47;;;4.60;99.90;;;;;;4849446;29;20400;-81
2022/02/20 00:43:47;;;;;;;1.70;1.57;;;4.80;99.90;;;;;;4849529;29;20536;-82
2022/02/20 00:46:31;;;;;;;2.87;1.60;;;4.70;99.90;;;;;;4849948;29;20387;-82
2022/02/20 00:49:16;;;;;;;2.00;1.37;;;4.70;99.90;;;;;;4849371;29;20430;-81
2022/02/20 00:52:01;;;;;;;1.47;1.20;;;4.50;99.90;;;;;;4848782;29;20436;-82
2022/02/20 00:54:45;;;;;;;1.63;1.53;;;4.80;99.90;;;;;;4859220;29;20499;-80
2022/02/20 00:57:30;;;;;;;3.40;3.10;;;4.60;99.90;;;;;;4854141;29;20414;-80
2022/02/20 01:00:15;;;;;;;1.70;1.27;;;4.70;99.90;;;;;;4853955;29;20404;-81
2022/02/20 01:03:00;;;;;;;1.00;1.00;;;4.80;99.90;;;;;;4853236;29;20476;-82
2022/02/20 01:05:46;;;;;;;2.23;1.63;;;4.80;99.90;;;;;;4852554;29;20928;-82
2022/02/20 01:08:30;;;;;;;2.70;1.30;;;4.80;99.90;;;;;;4860337;29;20397;-82
2022/02/20 01:11:15;;;;;;;0.90;0.90;;;4.80;99.90;;;;;;4848471;29;20463;-82
2022/02/20 01:13:59;;;;;;;1.87;1.43;;;4.80;99.90;;;;;;4860213;29;20396;-82
2022/02/20 01:16:43;;;;;;;4.37;2.20;;;4.60;99.90;;;;;;4848279;29;20403;-81
2022/02/20 01:19:28;;;;;;;2.60;1.30;;;4.80;99.90;;;;;;4847241;29;20404;-82
2022/02/20 01:22:13;;;;;;;2.53;1.10;;;4.80;99.90;;;;;;4848207;29;20412;-81
2022/02/20 01:24:57;;;;;;;1.90;1.67;;;4.70;99.90;;;;;;4848289;29;20396;-81
2022/02/20 01:27:42;;;;;;;1.43;1.33;;;4.70;99.90;;;;;;4860265;29;20952;-81
2022/02/20 01:30:27;;;;;;;5.40;1.43;;;4.90;99.90;;;;;;4848374;29;20520;-82
2022/02/20 01:33:12;;;;;;;6.90;1.60;;;4.80;99.90;;;;;;4847268;29;20782;-81
2022/02/20 01:35:57;;;;;;;1.50;1.40;;;5.00;99.90;;;;;;4848008;29;20425;-82
2022/02/20 01:39:00;;;;;;;3.00;1.53;;;5.00;99.90;;;;;;4864174;29;20488;-82
2022/02/20 01:41:45;;;;;;;2.80;1.93;;;5.00;99.90;;;;;;4864892;29;20413;-82
2022/02/20 01:44:33;;;;;;;3.17;1.40;;;5.10;99.90;;;;;;4864016;29;20481;-82
2022/02/20 01:47:18;;;;;;;3.87;1.73;;;5.10;99.90;;;;;;4864074;29;20721;-82
2022/02/20 01:50:03;;;;;;;1.23;1.13;;;5.30;99.90;;;;;;4868467;29;20437;-81
2022/02/20 01:52:48;;;;;;;3.43;1.67;;;5.20;99.90;;;;;;4866576;29;20411;-81
2022/02/20 01:55:32;;;;;;;10.87;1.23;;;5.30;99.90;;;;;;4867318;29;20478;-81
2022/02/20 01:58:17;;;;;;;10.03;3.60;;;5.50;99.90;;;;;;4865593;29;20407;-82
2022/02/20 02:01:02;;;;;;;1.40;1.30;;;5.40;99.90;;;;;;4865847;29;20396;-82
2022/02/20 02:03:47;;;;;;;2.00;1.17;;;5.30;99.90;;;;;;4865997;29;20826;-82
2022/02/20 02:06:31;;;;;;;1.53;1.43;;;5.30;99.90;;;;;;4864487;29;20832;-82
2022/02/20 02:09:18;;;;;;;3.30;1.93;;;5.50;99.90;;;;;;4872409;29;20894;-82
2022/02/20 02:12:02;;;;;;;1.40;1.30;;;5.70;99.90;;;;;;4848431;29;20431;-81
2022/02/20 02:14:56;;;;;;;1.80;1.50;;;5.60;99.90;;;;;;4847740;29;20746;-82
2022/02/20 02:17:41;;;;;;;2.90;1.80;;;5.70;99.90;;;;;;4847045;29;20396;-82
2022/02/20 02:20:25;;;;;;;2.80;1.53;;;5.70;99.90;;;;;;4847314;29;20461;-82
2022/02/20 02:23:13;;;;;;;3.03;1.67;;;5.90;99.90;;;;;;4847362;29;20403;-82
2022/02/20 02:25:57;;;;;;;1.37;1.27;;;6.00;99.90;;;;;;4847444;29;20425;-82
2022/02/20 02:28:42;;;;;;;1.63;1.53;;;6.00;99.90;;;;;;4846927;29;20396;-82
2022/02/20 02:31:27;;;;;;;1.47;1.37;;;5.90;99.90;;;;;;4845697;29;20805;-82
2022/02/20 02:34:11;;;;;;;2.50;1.43;;;5.70;99.90;;;;;;4847659;29;20399;-82
2022/02/20 02:36:56;;;;;;;2.90;1.53;;;5.80;99.90;;;;;;4847587;29;20505;-82
2022/02/20 02:39:42;;;;;;;1.57;1.47;;;5.80;99.90;;;;;;4847687;29;20410;-82
2022/02/20 02:42:26;;;;;;;1.60;1.50;;;6.00;99.90;;;;;;4847995;29;20381;-82
2022/02/20 02:45:11;;;;;;;1.40;1.30;;;6.10;99.90;;;;;;4846208;29;20419;-82
2022/02/20 02:47:55;;;;;;;3.43;2.20;;;6.20;99.90;;;;;;4847355;29;20751;-81
2022/02/20 02:50:40;;;;;;;1.63;1.30;;;6.20;99.90;;;;;;4850621;29;20462;-82
2022/02/20 02:53:25;;;;;;;1.53;1.43;;;6.20;99.90;;;;;;4864186;29;20399;-82
2022/02/20 02:56:09;;;;;;;1.30;1.20;;;6.10;99.90;;;;;;4850860;29;20475;-82
2022/02/20 02:58:54;;;;;;;2.37;1.50;;;6.10;99.90;;;;;;4849097;29;20396;-82
2022/02/20 03:01:39;;;;;;;2.13;1.70;;;6.00;99.90;;;;;;4849848;29;20432;-83
2022/02/20 03:04:24;;;;;;;1.30;1.20;;;6.10;99.90;;;;;;4851019;29;20850;-82
2022/02/20 03:07:09;;;;;;;3.33;1.47;;;6.10;99.90;;;;;;4851438;29;20464;-82
2022/02/20 03:09:53;;;;;;;4.17;1.90;;;6.20;99.90;;;;;;4851342;29;20539;-81
2022/02/20 03:12:38;;;;;;;1.20;1.10;;;6.10;99.90;;;;;;4851036;29;20399;-82
2022/02/20 03:15:22;;;;;;;2.00;1.33;;;5.90;99.90;;;;;;4850496;29;20449;-81
2022/02/20 03:18:07;;;;;;;8.80;2.13;;;6.10;99.90;;;;;;4862178;29;20440;-82
2022/02/20 03:20:51;;;;;;;2.20;2.00;;;6.00;99.90;;;;;;4850312;29;20433;-82
2022/02/20 03:23:36;;;;;;;1.17;1.07;;;6.10;99.90;;;;;;4850751;29;20409;-82
2022/02/20 03:26:21;;;;;;;8.00;2.27;;;6.30;99.90;;;;;;4849138;29;20446;-82
2022/02/20 03:29:05;;;;;;;1.83;1.73;;;6.30;99.90;;;;;;4850284;29;20397;-82
2022/02/20 03:31:50;;;;;;;2.53;1.70;;;6.30;99.90;;;;;;4847268;29;20508;-82
2022/02/20 03:34:35;;;;;;;2.33;1.97;;;6.10;99.90;;;;;;4846119;29;20892;-81
2022/02/20 03:37:19;;;;;;;1.77;1.67;;;6.20;99.90;;;;;;4846006;29;20399;-82
2022/02/20 03:40:04;;;;;;;2.30;1.90;;;6.30;99.90;;;;;;4846483;29;20921;-81
2022/02/20 03:42:50;;;;;;;14.17;2.87;;;6.20;99.90;;;;;;4845529;29;20432;-82
2022/02/20 03:45:35;;;;;;;4.53;2.20;;;6.40;99.90;;;;;;4857595;29;20457;-82
2022/02/20 03:48:19;;;;;;;2.60;1.43;;;6.30;99.90;;;;;;4845740;29;20411;-81
2022/02/20 03:51:05;;;;;;;1.97;1.30;;;6.40;99.90;;;;;;4845749;29;20495;-81
2022/02/20 03:53:49;;;;;;;2.93;1.40;;;6.40;99.90;;;;;;4844964;29;20396;-82
2022/02/20 03:56:34;;;;;;;4.00;1.43;;;6.30;99.90;;;;;;4856264;29;20535;-80
2022/02/20 03:59:18;;;;;;;5.90;1.60;;;6.30;99.90;;;;;;4855058;29;20417;-82
2022/02/20 04:02:03;;;;;;;1.20;1.10;;;6.40;99.90;;;;;;4850083;29;20403;-82
2022/02/20 04:04:47;;;;;;;4.27;2.07;;;6.30;99.90;;;;;;4861711;29;20493;-82
2022/02/20 04:07:33;;;;;;;3.27;1.47;;;6.30;99.90;;;;;;4849862;29;20537;-82
2022/02/20 04:10:17;;;;;;;1.20;1.10;;;6.30;99.90;;;;;;4849254;29;20459;-82
2022/02/20 04:13:02;;;;;;;4.87;1.63;;;6.30;99.90;;;;;;4849646;29;20453;-81
2022/02/20 04:15:46;;;;;;;2.17;1.73;;;6.30;99.90;;;;;;4849222;29;20449;-82
2022/02/20 04:18:31;;;;;;;5.23;2.00;;;6.20;99.90;;;;;;4848392;29;20404;-82
2022/02/20 04:21:16;;;;;;;6.73;1.77;;;6.10;99.90;;;;;;4849675;29;20407;-82
2022/02/20 04:24:00;;;;;;;2.20;1.67;;;6.20;99.90;;;;;;4849445;29;20484;-82
2022/02/20 04:26:45;;;;;;;3.23;1.43;;;6.20;99.90;;;;;;4849194;29;20403;-82
2022/02/20 04:29:29;;;;;;;1.30;1.00;;;6.20;99.90;;;;;;4848986;29;20465;-82
2022/02/20 04:32:13;;;;;;;3.73;1.53;;;6.20;99.90;;;;;;4860801;29;20540;-82
2022/02/20 04:34:58;;;;;;;1.40;1.30;;;6.00;99.90;;;;;;4849955;29;20411;-81
2022/02/20 04:37:42;;;;;;;6.40;1.80;;;6.00;99.90;;;;;;4849240;29;20415;-81
2022/02/20 04:40:28;;;;;;;1.27;1.17;;;6.10;99.90;;;;;;4861415;29;20537;-82
2022/02/20 04:43:12;;;;;;;4.87;1.87;;;6.00;99.90;;;;;;4849001;29;20952;-82
2022/02/20 04:45:57;;;;;;;5.80;1.43;;;6.00;99.90;;;;;;4852732;29;20469;-81
2022/02/20 04:48:41;;;;;;;1.63;1.53;;;5.90;99.90;;;;;;4861852;29;20399;-82
2022/02/20 04:51:26;;;;;;;2.30;1.77;;;6.00;99.90;;;;;;4860802;29;20535;-82
2022/02/20 04:54:10;;;;;;;5.70;1.43;;;6.00;99.90;;;;;;4848647;29;20408;-82
2022/02/20 04:56:55;;;;;;;1.50;1.40;;;6.10;99.90;;;;;;4849249;29;20458;-82
2022/02/20 04:59:40;;;;;;;4.23;1.60;;;6.10;99.90;;;;;;4860780;29;20403;-81
2022/02/20 05:02:24;;;;;;;1.40;1.30;;;6.20;99.90;;;;;;4859856;29;20396;-82
2022/02/20 05:05:10;;;;;;;1.57;1.47;;;6.10;99.90;;;;;;4848468;29;20785;-82
2022/02/20 05:07:55;;;;;;;1.40;1.30;;;6.20;99.90;;;;;;4860815;29;20764;-81
2022/02/20 05:10:39;;;;;;;1.50;1.40;;;6.20;99.90;;;;;;4850658;29;20467;-82
2022/02/20 05:13:23;;;;;;;4.60;2.17;;;6.20;99.90;;;;;;4852138;29;20400;-82
2022/02/20 05:16:08;;;;;;;10.90;1.80;;;6.20;99.90;;;;;;4851648;29;20613;-81
2022/02/20 05:18:54;;;;;;;1.17;1.03;;;6.20;99.90;;;;;;4851719;29;20400;-82
2022/02/20 05:21:38;;;;;;;1.80;1.07;;;6.10;99.90;;;;;;4848770;29;20431;-82
2022/02/20 05:24:22;;;;;;;2.43;1.70;;;6.10;99.90;;;;;;4848947;29;20411;-82
2022/02/20 05:27:07;;;;;;;2.10;2.00;;;6.10;99.90;;;;;;4847438;29;20466;-82
2022/02/20 05:29:51;;;;;;;2.20;2.00;;;6.20;99.90;;;;;;4848829;29;20447;-82
2022/02/20 05:32:36;;;;;;;1.20;1.10;;;6.20;99.90;;;;;;4848667;29;20396;-82
2022/02/20 05:35:20;;;;;;;6.37;1.60;;;6.20;99.90;;;;;;4848768;29;20438;-82
2022/02/20 05:38:05;;;;;;;1.73;1.63;;;6.30;99.90;;;;;;4849563;29;20457;-82
2022/02/20 05:40:50;;;;;;;3.67;1.60;;;6.30;99.90;;;;;;4857604;29;20399;-81
2022/02/20 05:43:34;;;;;;;2.67;1.30;;;6.30;99.90;;;;;;4864384;29;20430;-80
2022/02/20 05:46:19;;;;;;;2.40;1.50;;;6.40;99.90;;;;;;4865273;29;20399;-79
2022/02/20 05:49:04;;;;;;;2.40;1.40;;;6.50;99.90;;;;;;4857574;29;20395;-82
2022/02/20 05:51:48;;;;;;;1.10;1.00;;;6.50;99.90;;;;;;4848485;29;20976;-82
2022/02/20 05:54:32;;;;;;;1.43;1.33;;;6.50;99.90;;;;;;4848113;29;20432;-82
2022/02/20 05:57:17;;;;;;;1.70;1.60;;;6.40;99.90;;;;;;4848056;29;20396;-82
2022/02/20 06:00:02;;;;;;;1.70;1.53;;;6.60;99.90;;;;;;4846875;29;20435;-82
2022/02/20 06:02:46;;;;;;;4.53;1.50;;;6.50;99.90;;;;;;4847932;29;20416;-81
2022/02/20 06:05:31;;;;;;;3.17;1.77;;;6.60;99.90;;;;;;4847044;29;20915;-82
2022/02/20 06:08:16;;;;;;;3.43;1.47;;;6.70;99.90;;;;;;4846922;29;20452;-82
2022/02/20 06:11:00;;;;;;;2.57;2.37;;;6.50;99.90;;;;;;4847097;29;20479;-82
2022/02/20 06:13:45;;;;;;;4.10;1.70;;;6.70;99.90;;;;;;4848106;29;20430;-82
2022/02/20 06:16:29;;;;;;;4.00;1.90;;;6.70;99.90;;;;;;4847957;29;20805;-82
2022/02/20 06:19:14;;;;;;;1.67;1.30;;;6.80;99.90;;;;;;4847405;29;20396;-82
2022/02/20 06:21:58;;;;;;;1.53;1.43;;;6.70;99.90;;;;;;4848198;29;20834;-81
2022/02/20 06:24:44;;;;;;;5.90;1.93;;;6.70;99.90;;;;;;4848519;29;20452;-82
2022/02/20 06:27:28;;;;;;;3.77;1.30;;;6.90;99.90;;;;;;4859756;29;20753;-82
2022/02/20 06:30:13;;;;;;;1.63;1.40;;;6.80;99.90;;;;;;4847558;29;20456;-81
2022/02/20 06:32:57;;;;;;;5.80;1.67;;;6.90;99.90;;;;;;4858919;29;20367;-80
2022/02/20 06:35:42;;;;;;;1.37;1.27;;;6.50;99.90;;;;;;4846897;29;20481;-82
2022/02/20 06:38:27;;;;;;;1.93;1.30;;;6.50;99.90;;;;;;4847222;29;20400;-80
2022/02/20 06:41:11;;;;;;;2.67;1.60;;;6.40;99.90;;;;;;4847002;29;20485;-82
2022/02/20 06:43:56;;;;;;;1.50;1.30;;;6.40;99.90;;;;;;4847324;29;20400;-81
2022/02/20 06:46:42;;;;;;;1.50;1.40;;;6.40;99.90;;;;;;4846179;29;20436;-81
2022/02/20 06:49:26;;;;;;;4.93;1.30;;;6.30;99.90;;;;;;4846435;29;20449;-82
2022/02/20 06:52:11;;;;;;;3.47;1.80;;;6.40;99.90;;;;;;4847082;29;20984;-82
2022/02/20 06:54:55;;;;;;;2.60;1.20;;;6.40;99.90;;;;;;4847713;29;20475;-82
2022/02/20 06:57:41;;;;;;;5.87;1.80;;;6.40;99.90;;;;;;4851304;29;20897;-81
2022/02/20 07:00:25;;;;;;;2.83;2.00;;;6.40;99.90;;;;;;4850710;29;20396;-80
2022/02/20 07:03:10;;;;;;;1.70;1.60;;;6.50;99.90;;;;;;4853358;29;20412;-82
2022/02/20 07:05:54;;;;;;;5.90;2.17;;;6.50;99.90;;;;;;4847423;29;20408;-82
2022/02/20 07:08:39;;;;;;;3.40;1.80;;;6.60;99.90;;;;;;4846922;29;20408;-82
2022/02/20 07:11:23;;;;;;;3.80;1.10;;;6.60;99.90;;;;;;4845511;29;20547;-82
2022/02/20 07:14:08;;;;;;;1.40;1.30;;;6.70;99.90;;;;;;4847351;29;20449;-82
2022/02/20 07:16:52;;;;;;;3.70;1.83;;;6.60;99.90;;;;;;4845893;29;20421;-81
2022/02/20 07:19:37;;;;;;;2.83;1.73;;;6.70;99.90;;;;;;4847116;29;20464;-82
2022/02/20 07:22:22;;;;;;;1.87;1.30;;;6.70;99.90;;;;;;4845328;29;20453;-81
2022/02/20 07:25:07;;;;;;;5.23;1.60;;;6.70;99.90;;;;;;4845716;29;20436;-82
2022/02/20 07:27:55;;;;;;;3.07;1.70;;;6.80;99.90;;;;;;4847424;29;20935;-81
2022/02/20 07:30:39;;;;;;;2.13;2.03;;;7.00;99.90;;;;;;4849877;29;20552;-81
2022/02/20 07:33:24;;;;;;;2.13;1.93;;;7.20;99.90;;;;;;4849845;29;20374;-82
2022/02/20 07:36:08;;;;;;;1.23;1.13;;;7.10;99.90;;;;;;4847808;29;20420;-82
2022/02/20 07:38:52;;;;;;;1.90;1.63;;;7.00;99.90;;;;;;4862291;29;20399;-82
2022/02/20 07:41:38;;;;;;;2.80;1.60;;;6.90;99.90;;;;;;4846378;29;20978;-82
2022/02/20 07:44:23;;;;;;;1.93;1.67;;;6.90;99.90;;;;;;4845119;29;20974;-82
2022/02/20 07:47:08;;;;;;;6.60;1.87;;;7.00;99.90;;;;;;4845563;29;20436;-82
2022/02/20 07:49:52;;;;;;;1.87;1.33;;;7.00;99.90;;;;;;4846219;29;20457;-82
2022/02/20 07:52:36;;;;;;;3.30;1.50;;;7.10;99.90;;;;;;4858664;29;20516;-81
2022/02/20 07:55:21;;;;;;;3.77;2.27;;;6.90;99.90;;;;;;4847068;29;20559;-82
2022/02/20 07:58:10;;;;;;;2.43;1.73;;;6.90;99.90;;;;;;4846857;29;20909;-82
2022/02/20 08:00:54;;;;;;;13.67;2.40;;;6.90;99.90;;;;;;4845765;29;20440;-82
2022/02/20 08:03:39;;;;;;;2.70;1.40;;;7.20;99.90;;;;;;4846047;29;20407;-82
2022/02/20 08:06:24;;;;;;;2.53;1.43;;;7.20;99.90;;;;;;4857965;29;20934;-82
2022/02/20 08:09:09;;;;;;;3.60;2.50;;;7.10;99.90;;;;;;4846243;29;20769;-82
2022/02/20 08:11:54;;;;;;;3.23;1.63;;;7.30;99.90;;;;;;4846440;29;20451;-81
2022/02/20 08:14:38;;;;;;;1.90;1.57;;;7.40;99.90;;;;;;4856387;29;20399;-82
2022/02/20 08:17:23;;;;;;;1.60;1.50;;;7.20;99.90;;;;;;4849159;29;20505;-82
2022/02/20 08:20:08;;;;;;;3.33;1.50;;;7.20;99.90;;;;;;4847025;29;20303;-82
2022/02/20 08:22:52;;;;;;;1.40;1.30;;;7.40;99.90;;;;;;4846075;29;20808;-82
2022/02/20 08:25:38;;;;;;;2.27;1.90;;;7.30;99.90;;;;;;4846297;29;20488;-82
2022/02/20 08:28:22;;;;;;;3.20;1.67;;;7.30;99.90;;;;;;4862543;29;20455;-82
2022/02/20 08:31:07;;;;;;;1.57;1.40;;;7.50;99.90;;;;;;4862048;29;20883;-82
2022/02/20 08:33:53;;;;;;;4.60;2.30;;;7.40;99.90;;;;;;4862079;29;20847;-82
2022/02/20 08:36:38;;;;;;;4.23;1.73;;;7.50;99.90;;;;;;4861780;29;20787;-82
2022/02/20 08:39:23;;;;;;;1.60;1.50;;;7.50;99.90;;;;;;4862058;29;20418;-82
2022/02/20 08:42:09;;;;;;;3.60;1.90;;;7.20;99.90;;;;;;4862013;29;20407;-81
2022/02/20 08:44:54;;;;;;;1.60;1.50;;;7.10;99.90;;;;;;4865314;29;20451;-82
2022/02/20 08:47:38;;;;;;;3.50;2.00;;;7.30;99.90;;;;;;4865395;29;20474;-82
2022/02/20 08:50:23;;;;;;;2.17;1.87;;;7.40;99.90;;;;;;4865415;29;20475;-82
2022/02/20 08:53:08;;;;;;;2.20;1.83;;;7.40;99.90;;;;;;4865130;29;20411;-82
2022/02/20 08:55:52;;;;;;;2.20;2.00;;;7.50;99.90;;;;;;4864878;29;20470;-82
2022/02/20 08:58:36;;;;;;;1.80;1.70;;;7.30;99.90;;;;;;4866897;29;20460;-82
2022/02/20 09:01:21;;;;;;;7.00;2.10;;;7.50;99.90;;;;;;4866514;29;20467;-82
2022/02/20 09:04:06;;;;;;;2.90;1.67;;;7.50;99.90;;;;;;4866161;29;20459;-82
2022/02/20 09:06:51;;;;;;;2.27;1.67;;;7.40;99.90;;;;;;4849804;29;20407;-82
2022/02/20 09:09:36;;;;;;;2.93;2.17;;;7.40;99.90;;;;;;4849566;29;20912;-82
2022/02/20 09:12:20;;;;;;;6.00;2.00;;;7.50;99.90;;;;;;4849828;29;20408;-82
2022/02/20 09:15:07;;;;;;;2.67;1.63;;;7.60;99.90;;;;;;4849488;29;20910;-82
2022/02/20 09:17:52;;;;;;;2.97;2.63;;;7.60;99.90;;;;;;4848338;29;20416;-81
2022/02/20 09:20:36;;;;;;;1.50;1.40;;;7.50;99.90;;;;;;4860663;29;20953;-82
2022/02/20 09:23:21;;;;;;;2.10;1.77;;;7.50;99.90;;;;;;4860466;29;20404;-82
2022/02/20 09:26:06;;;;;;;2.93;1.60;;;7.60;99.90;;;;;;4848824;29;20698;-82
2022/02/20 09:28:50;;;;;;;3.63;1.80;;;7.50;99.90;;;;;;4848021;29;20396;-82
2022/02/20 09:31:35;;;;;;;2.00;1.80;;;7.60;99.90;;;;;;4847223;29;20610;-82
2022/02/20 09:34:20;;;;;;;1.40;1.30;;;7.70;99.90;;;;;;4848493;29;20937;-82
2022/02/20 09:37:05;;;;;;;4.23;2.00;;;7.40;99.90;;;;;;4847342;29;20400;-82
2022/02/20 09:39:49;;;;;;;2.47;1.70;;;7.50;99.90;;;;;;4848553;29;20498;-82
2022/02/20 09:42:34;;;;;;;2.93;1.87;;;7.70;99.90;;;;;;4849178;29;20412;-82
2022/02/20 09:45:19;;;;;;;3.90;1.97;;;7.50;99.90;;;;;;4848668;29;20505;-82
2022/02/20 09:48:03;;;;;;;1.37;1.27;;;7.50;99.90;;;;;;4848761;29;20762;-82
2022/02/20 09:50:48;;;;;;;1.60;1.40;;;7.50;99.90;;;;;;4847163;29;20493;-82
2022/02/20 09:53:35;;;;;;;4.13;2.00;;;7.40;99.90;;;;;;4847489;29;20440;-82
2022/02/20 09:56:19;;;;;;;1.83;1.50;;;7.30;99.90;;;;;;4847432;29;20532;-82
2022/02/20 09:59:03;;;;;;;1.70;1.50;;;7.50;99.90;;;;;;4848440;29;20407;-82
2022/02/20 10:02:09;;;;;;;1.60;1.50;;;7.50;99.90;;;;;;4849163;29;20403;-82
2022/02/20 10:04:55;;;;;;;2.90;2.70;;;7.60;99.90;;;;;;4856566;29;20427;-82
2022/02/20 10:07:39;;;;;;;1.37;1.13;;;7.60;99.90;;;;;;4856536;29;20411;-81
2022/02/20 10:10:27;;;;;;;2.83;2.37;;;7.50;99.90;;;;;;4856223;29;20482;-82
2022/02/20 10:13:25;;;;;;;3.10;2.10;;;7.70;99.90;;;;;;4856915;29;20427;-82
2022/02/20 10:16:27;;;;;;;3.63;1.83;;;7.80;99.90;;;;;;4846731;29;20426;-82
2022/02/20 10:19:12;;;;;;;2.30;1.30;;;7.70;99.90;;;;;;4846593;29;20446;-82
2022/02/20 10:21:56;;;;;;;2.83;1.43;;;7.80;99.90;;;;;;4845667;29;21000;-82
2022/02/20 10:25:00;;;;;;;1.47;1.30;;;7.70;99.90;;;;;;4846498;29;20419;-82
2022/02/20 10:27:51;;;;;;;7.27;1.67;;;7.80;99.90;;;;;;4845925;29;20411;-82
2022/02/20 10:30:35;;;;;;;6.10;2.30;;;7.70;99.90;;;;;;4844883;29;20544;-82
2022/02/20 10:33:22;;;;;;;1.93;1.67;;;7.80;99.90;;;;;;4845052;29;20937;-82
2022/02/20 10:36:06;;;;;;;2.20;2.10;;;7.80;99.90;;;;;;4858763;29;20445;-82
2022/02/20 10:38:50;;;;;;;2.87;1.77;;;7.60;99.90;;;;;;4847016;29;20465;-82
2022/02/20 10:41:35;;;;;;;1.63;1.27;;;7.60;99.90;;;;;;4847193;29;20469;-82
2022/02/20 10:44:20;;;;;;;2.00;1.90;;;7.60;99.90;;;;;;4847443;29;20473;-82
2022/02/20 10:47:10;;;;;;;3.60;1.43;;;7.50;99.90;;;;;;4847325;29;20488;-82
2022/02/20 10:49:54;;;;;;;1.03;0.97;;;7.50;99.90;;;;;;4847256;29;20404;-82
2022/02/20 10:52:39;;;;;;;3.00;1.30;;;7.40;99.90;;;;;;4859151;29;20392;-83
2022/02/20 10:55:24;;;;;;;1.90;1.60;;;7.60;99.90;;;;;;4846675;29;20515;-82
2022/02/20 10:58:10;;;;;;;1.53;1.33;;;7.70;99.90;;;;;;4847886;29;20403;-82
2022/02/20 11:00:59;;;;;;;2.50;1.30;;;7.70;99.90;;;;;;4847441;29;20465;-83
2022/02/20 11:03:44;;;;;;;2.60;1.37;;;7.60;99.90;;;;;;4847859;29;20422;-82
2022/02/20 11:06:29;;;;;;;2.63;1.37;;;7.60;99.90;;;;;;4850750;29;20966;-82
2022/02/20 11:09:15;;;;;;;3.23;1.37;;;7.70;99.90;;;;;;4833052;29;20407;-82
2022/02/20 11:11:59;;;;;;;6.50;1.60;;;7.70;99.90;;;;;;4846467;29;20463;-82
2022/02/20 11:14:44;;;;;;;3.87;1.43;;;7.80;99.90;;;;;;4849757;29;20399;-82
2022/02/20 11:17:30;;;;;;;2.47;1.67;;;7.80;99.90;;;;;;4856698;29;20465;-82
2022/02/20 11:20:15;;;;;;;2.80;1.50;;;7.80;99.90;;;;;;4846719;29;20407;-82
2022/02/20 11:23:02;;;;;;;1.20;1.10;;;7.90;99.90;;;;;;4845474;29;20891;-82
2022/02/20 11:25:47;;;;;;;1.83;1.70;;;7.70;99.90;;;;;;4858313;29;20407;-82
2022/02/20 11:28:32;;;;;;;1.33;1.10;;;7.80;99.90;;;;;;4845552;29;20412;-82
2022/02/20 11:31:20;;;;;;;1.17;1.10;;;7.90;99.90;;;;;;4846518;29;20455;-82
2022/02/20 11:34:06;;;;;;;1.30;1.20;;;8.20;99.90;;;;;;4846397;29;20408;-82
2022/02/20 11:36:55;;;;;;;2.47;1.20;;;7.90;99.90;;;;;;4846104;29;20453;-82
2022/02/20 11:40:00;;;;;;;1.80;1.70;;;7.80;99.90;;;;;;4845997;29;20433;-82
2022/02/20 11:43:07;;;;;;;1.47;1.37;;;7.80;99.90;;;;;;4846487;29;20909;-82
2022/02/20 11:46:07;;;;;;;1.60;1.50;;;7.90;99.90;;;;;;4871195;29;20939;-81
2022/02/20 11:49:26;;;;;;;3.47;2.13;;;7.90;99.90;;;;;;4864873;29;20407;-82
2022/02/20 11:52:13;;;;;;;1.63;1.53;;;8.10;99.90;;;;;;4853303;29;20430;-82
2022/02/20 11:54:58;;;;;;;4.50;1.57;;;8.20;99.90;;;;;;4865033;29;20462;-82
2022/02/20 11:57:45;;;;;;;2.43;1.40;;;8.20;99.90;;;;;;4864480;29;20474;-82
2022/02/20 12:00:30;;;;;;;2.93;1.80;;;8.50;99.90;;;;;;4850813;29;20403;-82
2022/02/20 12:03:17;;;;;;;1.63;1.43;;;8.60;99.90;;;;;;4864664;29;20410;-82
2022/02/20 12:06:23;;;;;;;1.40;1.30;;;8.50;99.90;;;;;;4852531;29;20803;-82
2022/02/20 12:09:23;;;;;;;1.27;1.17;;;8.50;99.90;;;;;;4857278;29;20548;-82
2022/02/20 12:12:29;;;;;;;1.20;1.10;;;8.60;99.90;;;;;;4869468;29;20865;-82
2022/02/20 12:15:33;;;;;;;1.33;1.23;;;8.50;99.90;;;;;;4858114;29;20406;-82
2022/02/20 12:18:27;;;;;;;1.93;1.20;;;8.50;99.90;;;;;;4872804;29;20446;-82
2022/02/20 12:21:17;;;;;;;1.53;1.40;;;8.60;99.90;;;;;;4884802;29;20403;-81
2022/02/20 12:24:17;;;;;;;2.50;1.77;;;8.60;99.90;;;;;;4874173;29;20524;-82
2022/02/20 12:27:04;;;;;;;2.67;1.50;;;8.70;99.90;;;;;;4872587;29;20399;-82
2022/02/20 12:29:51;;;;;;;3.37;1.57;;;8.70;99.90;;;;;;4871490;29;20403;-81
2022/02/20 12:32:35;;;;;;;1.30;1.03;;;8.80;99.90;;;;;;4872421;29;20422;-81
2022/02/20 12:35:22;;;;;;;3.63;1.30;;;8.80;99.90;;;;;;4876647;29;20406;-81
2022/02/20 12:38:11;;;;;;;1.50;1.40;;;8.80;99.90;;;;;;4874404;29;20464;-78
2022/02/20 12:40:56;;;;;;;2.27;2.00;;;8.90;99.90;;;;;;4876923;29;20403;-82
2022/02/20 12:43:48;;;;;;;1.37;1.10;;;9.00;99.90;;;;;;4876124;29;20402;-83
2022/02/20 12:46:32;;;;;;;1.10;1.00;;;8.60;99.90;;;;;;4872381;29;20804;-83
2022/02/20 12:49:17;;;;;;;2.23;1.30;;;8.70;99.90;;;;;;4854899;29;20931;-80
2022/02/20 12:52:04;;;;;;;2.23;2.03;;;8.90;99.90;;;;;;4853445;29;20454;-81
2022/02/20 12:54:55;;;;;;;4.40;1.90;;;8.90;99.90;;;;;;4853635;29;20610;-82
2022/02/20 12:57:41;;;;;;;1.20;1.10;;;8.90;99.90;;;;;;4867358;29;20407;-81
2022/02/20 13:00:29;;;;;;;1.20;1.10;;;9.00;99.90;;;;;;4866851;29;20542;-81
2022/02/20 13:03:17;;;;;;;1.40;1.30;;;9.00;99.90;;;;;;4867735;29;20425;-82
2022/02/20 13:06:02;;;;;;;1.53;1.43;;;8.80;99.90;;;;;;4867883;29;20492;-81
2022/02/20 13:08:47;;;;;;;5.50;1.40;;;8.90;99.90;;;;;;4868294;29;20406;-81
2022/02/20 13:11:31;;;;;;;1.30;1.20;;;9.00;99.90;;;;;;4853911;29;20470;-81
2022/02/20 13:14:18;;;;;;;2.50;1.33;;;9.00;99.90;;;;;;4867045;29;20391;-81
2022/02/20 13:17:02;;;;;;;1.27;1.17;;;8.90;99.90;;;;;;4853005;29;20407;-81
2022/02/20 13:19:47;;;;;;;1.27;1.17;;;9.00;99.90;;;;;;4865053;29;21027;-81
2022/02/20 13:22:31;;;;;;;2.70;1.93;;;8.90;99.90;;;;;;4864523;29;20456;-81
2022/02/20 13:25:17;;;;;;;3.73;3.43;;;9.00;99.90;;;;;;4864905;29;21068;-81
2022/02/20 13:28:03;;;;;;;1.40;1.30;;;9.00;99.90;;;;;;4864127;29;20436;-80
2022/02/20 13:30:48;;;;;;;1.50;1.40;;;9.00;99.90;;;;;;4863636;29;20455;-81
2022/02/20 13:33:36;;;;;;;2.43;1.50;;;9.00;99.90;;;;;;4863990;29;20578;-80
2022/02/20 13:36:22;;;;;;;2.40;1.10;;;9.00;99.90;;;;;;4864733;29;20489;-81
2022/02/20 13:39:14;;;;;;;1.63;1.30;;;9.00;99.90;;;;;;4864343;29;20513;-81
2022/02/20 13:42:03;;;;;;;2.97;1.40;;;8.90;99.90;;;;;;4863552;29;20487;-80
2022/02/20 13:44:47;;;;;;;1.20;1.10;;;9.00;99.90;;;;;;4864358;29;20419;-82
2022/02/20 13:47:32;;;;;;;4.00;1.57;;;9.00;99.90;;;;;;4864469;29;20420;-81
2022/02/20 13:50:19;;;;;;;1.60;1.37;;;9.10;99.90;;;;;;4865098;29;20550;-82
2022/02/20 13:53:03;;;;;;;1.13;1.03;;;9.20;99.90;;;;;;4852736;29;20440;-82
2022/02/20 13:55:55;;;;;;;1.33;1.10;;;9.40;99.90;;;;;;4867046;29;20491;-82
2022/02/20 13:58:41;;;;;;;1.17;1.07;;;9.40;99.90;;;;;;4869272;29;20467;-83
2022/02/20 14:01:49;;;;;;;2.43;2.23;;;9.10;99.90;;;;;;4881617;29;20398;-83
2022/02/20 14:04:47;;;;;;;2.67;1.77;;;9.30;99.90;;;;;;4869901;29;20727;-83
2022/02/20 14:07:31;;;;;;;2.13;1.60;;;9.10;99.90;;;;;;4854548;29;20414;-82
2022/02/20 14:10:18;;;;;;;1.43;1.33;;;9.30;99.90;;;;;;4867958;29;20963;-81
2022/02/20 14:13:16;;;;;;;1.67;1.17;;;9.20;99.90;;;;;;4837965;29;20415;-80
2022/02/20 14:16:02;;;;;;;1.83;1.40;;;9.30;99.90;;;;;;4837013;29;20475;-81
2022/02/20 14:18:49;;;;;;;2.40;1.40;;;9.40;99.90;;;;;;4799995;29;20410;-81
2022/02/20 14:21:34;;;;;;;3.07;1.73;;;9.30;99.90;;;;;;4801665;29;20452;-81
2022/02/20 14:24:19;;;;;;;1.10;1.00;;;9.10;99.90;;;;;;4799824;29;20416;-81
2022/02/20 14:27:06;;;;;;;1.27;1.00;;;9.30;99.90;;;;;;4803508;29;20421;-81
2022/02/20 14:29:54;;;;;;;2.67;1.40;;;9.40;99.90;;;;;;4799987;29;20432;-81
2022/02/20 14:32:45;;;;;;;3.33;1.77;;;9.50;99.90;;;;;;4812627;29;20450;-79
2022/02/20 14:35:31;;;;;;;1.20;1.10;;;9.40;99.90;;;;;;4845080;29;20427;-80
2022/02/20 14:38:19;;;;;;;6.30;1.70;;;9.60;99.90;;;;;;4844070;29;20416;-80